Terminal Aerodrome Forecast
Issued by NWS

Home | Current Version | Previous Version | Text Only | Print | Product List | Glossary On
Versions: 1 2 3 4 5 6 7 8 9 10 11 12 13 14 15 16 17 18
000
FTUS43 KIND 271700
TAFBMG
TAF
KBMG 271725Z 2718/2818 33004KT P6SM SCT025 SCT250
     FM272100 33005KT P6SM VCTS SCT025CB BKN250
     FM280200 01004KT P6SM SCT100 BKN250
     FM280600 03003KT 5SM BR BKN100
     FM281500 10005KT P6SM FEW030 BKN150=

USA.gov is the U.S. government's official web portal to all federal, state and local government web resources and services.